Sunday, December 17, 2017, 10:17 PM EST
Back to Local

KLBE, Latrobe / Westmorland

Location: Latrobe, PA, United States Lat: 40.283
Local Time: 10:17 PM EST ( 3:17 GMT) Lon: -79.4
Time Zone: US/Eastern Elev: 1184 ft

Show me the last for .
Show Coded

Time T Td Feel RH Dir Speed Gust Alt SLP Vis Weather Sky Remarks
2017-12-17 21:54 36 36 - 100 - Calm - 30.11 - 3 -RA BKN049 BKN065 None
2017-12-17 20:45 36 36 - 100 - Calm - 30.13 - 3 -RA BKN043 None
2017-12-17 19:45 36 36 - 100 - Calm - 30.14 - 3 -RA OVC037 None
2017-12-17 18:47 36 36 - 100 - Calm - 30.14 - 5 -RA SCT021 BKN036 None
2017-12-17 17:55 37 36 - 93 - Calm - 30.15 - 6 -RA FEW031 SCT047 None
2017-12-17 16:50 37 34 - 86 - Calm - 30.16 - 4 -RA FEW034 SCT047 None
2017-12-17 15:50 41 32 36 70 240° 7 - 30.12 - 10 OVC080 None
2017-12-17 14:50 41 30 36 65 240° 7 - 30.12 - 10 OVC120 None
2017-12-17 13:50 41 30 36 65 240° 7 - 30.15 - 10 OVC120 None
2017-12-17 12:50 41 28 36 60 230° 7 - 30.17 - 10 OVC100 None
2017-12-17 11:45 39 28 34 64 220° 8 - 30.20 - 10 CLR None
2017-12-17 10:45 39 28 33 64 210° 9 - 30.26 - 10 CLR None
2017-12-17 09:45 37 28 32 69 220° 7 - 30.22 - 10 CLR None
2017-12-17 08:45 32 27 25 80 220° 8 - 30.21 - 10 CLR None
2017-12-17 07:45 32 27 27 80 210° 5 - 30.20 - 10 CLR None
2017-12-17 06:45 32 27 26 80 210° 7 - 30.21 - 10 CLR None
2017-12-17 05:55 34 27 26 74 190° 10 - 30.18 - 10 CLR None
2017-12-17 05:35 32 27 24 80 200° 9 - 30.19 - 10 CLR None
2017-12-17 05:15 32 27 24 80 200° 9 - 30.18 - 10 CLR None
2017-12-17 04:55 32 27 24 80 210° 10 - 30.18 - 10 CLR None
2017-12-17 04:35 32 25 25 74 200° 8 - 30.17 - 10 CLR None
2017-12-17 04:15 32 25 24 74 210° 9 - 30.18 - 10 CLR None
2017-12-17 03:55 32 27 23 80 210° 12 - 30.19 - 10 CLR None
2017-12-17 03:35 34 27 26 74 200° 9 - 30.19 - 10 CLR None
2017-12-17 03:15 34 25 27 69 200° 8 - 30.19 - 10 CLR None
2017-12-17 02:55 34 25 26 69 200° 9 - 30.19 - 10 CLR None
2017-12-17 02:35 36 27 29 69 200° 9 - 30.19 - 10 CLR None
2017-12-17 02:15 32 27 24 80 210° 10 - 30.19 - 10 CLR None
2017-12-17 01:55 32 25 25 74 200° 8 - 30.18 - 10 CLR None
2017-12-17 01:35 34 25 26 69 200° 10 - 30.18 - 10 CLR None
2017-12-17 01:15 34 25 26 69 200° 9 - 30.16 - 10 CLR None
2017-12-17 00:55 32 25 24 74 210° 9 - 30.16 - 10 CLR None
2017-12-17 00:35 32 25 24 74 200° 9 - 30.16 - 10 CLR None
2017-12-17 00:15 32 25 24 74 210° 9 - 30.16 - 10 CLR None
2017-12-16 23:55 30 25 23 80 200° 7 - 30.16 - 10 CLR None
2017-12-16 23:35 32 25 26 74 210° 7 - 30.16 - 10 CLR None
2017-12-16 23:15 32 25 25 74 200° 8 - 30.15 - 10 CLR None
2017-12-16 22:55 32 25 26 74 210° 7 - 30.15 - 10 CLR None
2017-12-16 22:35 30 25 23 80 210° 8 - 30.15 - 10 CLR None

Support USWX by starting your Amazon purchase here.